Time;durP1;ratioP1;P1;durP2;ratioP2;P2;SDS_P1;SDS_P2;PMS_P1;PMS_P2;Temp;Humidity;BMP_temperature;BMP_pressure;BME280_temperature;BME280_humidity;BME280_pressure;Samples;Min_cycle;Max_cycle;Signal;HPM_P1;HPM_P2
2021/06/30 00:00:10;;;;;;;3.17;1.95;;;;;;;;;;5053896;28;20429;-46
2021/06/30 00:02:53;;;;;;;3.35;2.03;;;;;;;;;;5047831;27;20435;-48
2021/06/30 00:05:36;;;;;;;3.08;2.05;;;;;;;;;;5069118;28;20411;-47
2021/06/30 00:08:19;;;;;;;3.08;1.90;;;;;;;;;;5065058;28;20474;-48
2021/06/30 00:11:03;;;;;;;2.45;2.08;;;;;;;;;;5057731;28;20409;-45
2021/06/30 00:13:46;;;;;;;2.42;1.90;;;;;;;;;;5067643;28;20917;-49
2021/06/30 00:16:33;;;;;;;3.53;2.30;;;;;;;;;;5062064;28;20424;-38
2021/06/30 00:19:18;;;;;;;3.72;2.25;;;;;;;;;;5067434;28;20419;-40
2021/06/30 00:22:02;;;;;;;2.80;2.28;;;;;;;;;;5063075;28;20437;-45
2021/06/30 00:24:45;;;;;;;4.15;2.33;;;;;;;;;;5068913;28;20411;-48
2021/06/30 00:27:28;;;;;;;2.40;2.13;;;;;;;;;;5058672;28;20436;-42
2021/06/30 00:30:11;;;;;;;3.92;2.20;;;;;;;;;;5087679;27;20425;-43
2021/06/30 00:32:54;;;;;;;4.13;2.30;;;;;;;;;;5055896;28;20436;-41
2021/06/30 00:35:37;;;;;;;5.18;2.50;;;;;;;;;;5108155;27;20871;-43
2021/06/30 00:38:20;;;;;;;3.55;2.58;;;;;;;;;;5067103;28;20421;-42
2021/06/30 00:41:03;;;;;;;5.10;2.45;;;;;;;;;;5065401;28;20431;-42
2021/06/30 00:43:46;;;;;;;5.78;2.42;;;;;;;;;;5063150;28;20431;-42
2021/06/30 00:46:30;;;;;;;3.10;2.25;;;;;;;;;;5063688;28;20427;-45
2021/06/30 00:49:12;;;;;;;2.47;2.25;;;;;;;;;;5060190;28;20432;-42
2021/06/30 00:51:55;;;;;;;3.08;2.28;;;;;;;;;;5043273;28;20426;-42
2021/06/30 00:54:38;;;;;;;3.10;2.53;;;;;;;;;;5061156;28;20429;-42
2021/06/30 00:57:21;;;;;;;3.15;2.15;;;;;;;;;;5068887;28;20395;-44
2021/06/30 01:00:05;;;;;;;2.33;2.00;;;;;;;;;;5061300;28;20844;-40
2021/06/30 01:02:48;;;;;;;3.08;2.30;;;;;;;;;;5059855;28;20436;-44
2021/06/30 01:05:31;;;;;;;2.80;2.20;;;;;;;;;;5067248;28;20851;-46
2021/06/30 01:08:16;;;;;;;2.88;2.17;;;;;;;;;;5068417;28;20421;-42
2021/06/30 01:10:59;;;;;;;3.65;2.50;;;;;;;;;;5062345;28;20428;-40
2021/06/30 01:13:42;;;;;;;3.60;2.78;;;;;;;;;;5068095;28;20935;-44
2021/06/30 01:16:25;;;;;;;3.03;2.05;;;;;;;;;;5060594;28;20432;-42
2021/06/30 01:19:08;;;;;;;4.32;2.05;;;;;;;;;;5058025;28;20479;-44
2021/06/30 01:21:51;;;;;;;4.82;2.38;;;;;;;;;;5062012;28;20432;-43
2021/06/30 01:24:34;;;;;;;3.45;2.17;;;;;;;;;;5069635;28;21796;-41
2021/06/30 01:27:18;;;;;;;4.18;2.30;;;;;;;;;;5077570;28;20899;-49
2021/06/30 01:30:03;;;;;;;3.10;2.35;;;;;;;;;;5068692;28;20416;-41
2021/06/30 01:32:46;;;;;;;3.08;1.95;;;;;;;;;;5063194;28;20431;-43
2021/06/30 01:35:29;;;;;;;3.03;2.10;;;;;;;;;;5065620;28;20419;-43
2021/06/30 01:38:12;;;;;;;2.60;2.17;;;;;;;;;;5067922;28;20427;-41
2021/06/30 01:40:56;;;;;;;2.80;1.83;;;;;;;;;;5052447;28;20420;-40
2021/06/30 01:43:38;;;;;;;4.35;2.60;;;;;;;;;;5062102;28;20487;-43
2021/06/30 01:46:22;;;;;;;2.72;2.35;;;;;;;;;;5064023;28;20432;-46
2021/06/30 01:49:06;;;;;;;3.05;2.50;;;;;;;;;;5065723;28;20485;-40
2021/06/30 01:51:49;;;;;;;5.82;2.80;;;;;;;;;;5057871;28;20427;-41
2021/06/30 01:54:31;;;;;;;3.83;2.55;;;;;;;;;;5055156;28;20479;-43
2021/06/30 01:57:14;;;;;;;3.70;2.47;;;;;;;;;;5066863;28;20430;-42
2021/06/30 01:59:58;;;;;;;4.07;2.70;;;;;;;;;;5061900;28;20424;-42
2021/06/30 02:02:42;;;;;;;3.83;2.53;;;;;;;;;;5043761;28;20426;-41
2021/06/30 02:05:25;;;;;;;4.72;2.85;;;;;;;;;;5067958;28;21105;-40
2021/06/30 02:08:08;;;;;;;4.25;2.65;;;;;;;;;;5060344;28;20473;-41
2021/06/30 02:10:51;;;;;;;3.65;2.40;;;;;;;;;;5062304;28;20431;-43
2021/06/30 02:13:34;;;;;;;3.17;2.33;;;;;;;;;;5054192;28;20420;-42
2021/06/30 02:16:17;;;;;;;3.05;2.60;;;;;;;;;;5062457;28;20415;-42
2021/06/30 02:19:04;;;;;;;4.50;2.40;;;;;;;;;;5064535;28;20473;-45
2021/06/30 02:21:46;;;;;;;4.05;2.20;;;;;;;;;;5064105;28;20849;-41
2021/06/30 02:24:29;;;;;;;3.80;2.30;;;;;;;;;;5069243;28;20418;-39
2021/06/30 02:27:14;;;;;;;5.55;2.60;;;;;;;;;;5064254;28;20485;-46
2021/06/30 02:29:57;;;;;;;3.67;2.20;;;;;;;;;;5051646;28;20432;-41
2021/06/30 02:32:40;;;;;;;2.72;2.33;;;;;;;;;;5048407;28;20424;-40
2021/06/30 02:35:24;;;;;;;7.95;2.55;;;;;;;;;;5067851;28;20466;-43
2021/06/30 02:38:06;;;;;;;3.55;2.40;;;;;;;;;;5059047;28;20865;-44
2021/06/30 02:40:49;;;;;;;3.25;2.30;;;;;;;;;;5054620;28;20939;-47
2021/06/30 02:43:32;;;;;;;3.17;2.22;;;;;;;;;;5125965;27;20438;-46
2021/06/30 02:46:15;;;;;;;4.00;2.08;;;;;;;;;;5073282;28;20446;-47
2021/06/30 02:48:58;;;;;;;3.58;2.33;;;;;;;;;;5060083;28;20820;-49
2021/06/30 02:51:41;;;;;;;3.00;1.80;;;;;;;;;;5056122;28;20436;-51
2021/06/30 02:54:24;;;;;;;2.95;2.00;;;;;;;;;;5066993;28;20431;-49
2021/06/30 02:57:07;;;;;;;3.53;2.05;;;;;;;;;;5068682;28;20457;-48
2021/06/30 02:59:50;;;;;;;4.80;1.67;;;;;;;;;;5052713;28;20433;-41
2021/06/30 03:02:33;;;;;;;2.70;1.20;;;;;;;;;;5044873;28;20434;-40
2021/06/30 03:05:16;;;;;;;2.65;1.00;;;;;;;;;;5048530;28;20436;-45
2021/06/30 03:07:59;;;;;;;1.17;1.00;;;;;;;;;;5065928;28;20438;-44
2021/06/30 03:10:42;;;;;;;0.95;0.90;;;;;;;;;;5068110;28;20825;-46
2021/06/30 03:13:25;;;;;;;1.00;0.70;;;;;;;;;;5050414;28;20814;-41
2021/06/30 03:16:08;;;;;;;0.80;0.80;;;;;;;;;;5065490;28;20439;-45
2021/06/30 03:18:51;;;;;;;0.90;0.80;;;;;;;;;;5051317;28;20429;-41
2021/06/30 03:21:34;;;;;;;1.98;0.80;;;;;;;;;;5065492;28;20428;-43
2021/06/30 03:24:17;;;;;;;0.80;0.70;;;;;;;;;;5067264;28;20817;-43
2021/06/30 03:26:55;;;;;;;1.52;0.68;;;;;;;;;;5066491;28;20450;-46
2021/06/30 03:29:38;;;;;;;0.65;0.65;;;;;;;;;;5062749;28;20432;-49
2021/06/30 03:32:21;;;;;;;0.65;0.55;;;;;;;;;;5058221;28;20423;-46
2021/06/30 03:35:06;;;;;;;0.50;0.50;;;;;;;;;;5056664;28;20420;-46
2021/06/30 03:37:49;;;;;;;0.50;0.50;;;;;;;;;;5068694;28;20410;-46
2021/06/30 03:40:32;;;;;;;0.60;0.50;;;;;;;;;;5067078;28;20419;-50
2021/06/30 03:43:15;;;;;;;1.20;0.50;;;;;;;;;;5061652;28;21039;-45
2021/06/30 03:45:58;;;;;;;0.98;0.50;;;;;;;;;;5122518;27;20462;-46
2021/06/30 03:48:41;;;;;;;0.40;0.40;;;;;;;;;;5056697;28;20442;-46
2021/06/30 03:51:24;;;;;;;0.40;0.40;;;;;;;;;;5063166;28;20411;-46
2021/06/30 03:54:09;;;;;;;0.45;0.40;;;;;;;;;;5060468;28;20832;-45
2021/06/30 03:56:52;;;;;;;0.68;0.50;;;;;;;;;;5068937;28;20476;-44
2021/06/30 03:59:34;;;;;;;1.38;0.50;;;;;;;;;;5057463;27;20811;-45
2021/06/30 04:02:17;;;;;;;1.08;0.28;;;;;;;;;;5033203;28;20540;-45
2021/06/30 04:05:00;;;;;;;0.63;0.40;;;;;;;;;;5067281;28;20450;-42
2021/06/30 04:07:43;;;;;;;0.40;0.40;;;;;;;;;;5066712;28;20479;-42
2021/06/30 04:10:26;;;;;;;1.13;0.40;;;;;;;;;;5107806;27;20425;-43
2021/06/30 04:13:11;;;;;;;1.17;0.50;;;;;;;;;;5057868;28;20528;-42
2021/06/30 04:15:54;;;;;;;0.55;0.40;;;;;;;;;;5046108;28;20425;-43
2021/06/30 04:18:37;;;;;;;0.45;0.40;;;;;;;;;;5052707;28;20429;-42
2021/06/30 04:21:20;;;;;;;1.00;0.47;;;;;;;;;;5108689;27;20870;-42
2021/06/30 04:24:03;;;;;;;0.70;0.47;;;;;;;;;;5068868;28;20404;-44
2021/06/30 04:26:46;;;;;;;0.57;0.40;;;;;;;;;;5052852;28;20439;-40
2021/06/30 04:29:29;;;;;;;0.50;0.50;;;;;;;;;;5060774;28;20481;-44
2021/06/30 04:32:12;;;;;;;1.38;0.40;;;;;;;;;;5054976;28;20827;-40
2021/06/30 04:34:55;;;;;;;0.28;0.28;;;;;;;;;;5105337;27;20419;-44
2021/06/30 04:37:38;;;;;;;1.60;0.52;;;;;;;;;;5087142;28;20413;-43
2021/06/30 04:40:21;;;;;;;0.90;0.38;;;;;;;;;;5062056;28;20420;-43
2021/06/30 04:43:04;;;;;;;1.50;0.50;;;;;;;;;;5057987;28;20413;-42
2021/06/30 04:45:47;;;;;;;0.43;0.43;;;;;;;;;;5050813;28;20429;-40
2021/06/30 04:48:30;;;;;;;0.60;0.43;;;;;;;;;;5059819;28;20423;-43
2021/06/30 04:51:13;;;;;;;0.50;0.40;;;;;;;;;;5067876;28;20414;-42
2021/06/30 04:53:56;;;;;;;0.80;0.38;;;;;;;;;;5059897;28;20409;-43
2021/06/30 04:56:39;;;;;;;2.97;0.70;;;;;;;;;;5068880;28;20885;-43
2021/06/30 04:59:23;;;;;;;1.08;0.30;;;;;;;;;;5061057;28;20806;-42
2021/06/30 05:02:05;;;;;;;1.10;0.30;;;;;;;;;;5051743;28;20425;-42
2021/06/30 05:04:48;;;;;;;0.75;0.30;;;;;;;;;;5065915;28;20431;-44
2021/06/30 05:07:31;;;;;;;0.43;0.30;;;;;;;;;;5068692;28;20407;-41
2021/06/30 05:10:14;;;;;;;0.63;0.35;;;;;;;;;;5038830;28;20424;-43
2021/06/30 05:12:57;;;;;;;1.08;0.40;;;;;;;;;;5067671;28;20415;-42
2021/06/30 05:15:40;;;;;;;0.47;0.35;;;;;;;;;;5068590;28;20419;-44
2021/06/30 05:18:23;;;;;;;0.35;0.35;;;;;;;;;;5041842;28;20466;-45
2021/06/30 05:21:06;;;;;;;0.30;0.30;;;;;;;;;;5067976;28;20411;-42
2021/06/30 05:23:49;;;;;;;0.75;0.40;;;;;;;;;;5048422;28;20436;-45
2021/06/30 05:26:32;;;;;;;0.80;0.20;;;;;;;;;;5067515;28;20431;-44
2021/06/30 05:29:15;;;;;;;1.83;0.40;;;;;;;;;;5066106;28;20423;-46
2021/06/30 05:31:58;;;;;;;0.82;0.43;;;;;;;;;;5068354;28;20407;-45
2021/06/30 05:34:41;;;;;;;0.98;0.50;;;;;;;;;;5128820;27;20488;-42
2021/06/30 05:37:24;;;;;;;1.88;0.40;;;;;;;;;;5065300;28;20439;-44
2021/06/30 05:40:07;;;;;;;1.48;0.30;;;;;;;;;;5054287;28;20823;-42
2021/06/30 05:42:50;;;;;;;0.77;0.35;;;;;;;;;;5069669;28;20404;-42
2021/06/30 05:45:33;;;;;;;1.10;0.40;;;;;;;;;;5104948;27;20435;-45
2021/06/30 05:48:16;;;;;;;0.35;0.22;;;;;;;;;;5048066;28;20433;-42
2021/06/30 05:50:59;;;;;;;0.68;0.47;;;;;;;;;;5058011;28;20424;-46
2021/06/30 05:53:42;;;;;;;0.95;0.35;;;;;;;;;;5040579;28;20416;-48
2021/06/30 05:56:25;;;;;;;0.55;0.15;;;;;;;;;;5044895;28;20477;-45
2021/06/30 05:59:08;;;;;;;0.82;0.40;;;;;;;;;;5077914;28;20437;-40
2021/06/30 06:01:51;;;;;;;0.77;0.40;;;;;;;;;;5073191;28;20426;-42
2021/06/30 06:04:34;;;;;;;0.68;0.45;;;;;;;;;;5056190;27;21055;-46
2021/06/30 06:07:12;;;;;;;1.85;0.40;;;;;;;;;;5066172;28;20493;-45
2021/06/30 06:09:55;;;;;;;1.05;0.50;;;;;;;;;;5063762;28;20437;-44
2021/06/30 06:12:38;;;;;;;0.60;0.30;;;;;;;;;;5116699;27;20419;-45
2021/06/30 06:15:21;;;;;;;1.25;0.40;;;;;;;;;;5052629;28;20437;-43
2021/06/30 06:18:08;;;;;;;0.90;0.30;;;;;;;;;;5062729;28;20434;-45
2021/06/30 06:20:50;;;;;;;1.25;0.40;;;;;;;;;;5061022;28;20480;-38
2021/06/30 06:23:33;;;;;;;0.32;0.30;;;;;;;;;;5063197;28;20427;-42
2021/06/30 06:26:16;;;;;;;0.75;0.40;;;;;;;;;;5068376;28;20533;-42
2021/06/30 06:28:59;;;;;;;1.17;0.47;;;;;;;;;;5060682;28;20421;-46
2021/06/30 06:31:42;;;;;;;0.65;0.50;;;;;;;;;;5054048;28;20479;-43
2021/06/30 06:34:25;;;;;;;1.58;0.40;;;;;;;;;;5059541;28;20447;-44
2021/06/30 06:37:12;;;;;;;2.08;0.50;;;;;;;;;;5047389;28;20425;-48
2021/06/30 06:39:50;;;;;;;0.50;0.30;;;;;;;;;;5064513;28;20472;-45
2021/06/30 06:42:33;;;;;;;1.27;0.40;;;;;;;;;;5066392;28;20419;-44
2021/06/30 06:45:16;;;;;;;1.88;0.47;;;;;;;;;;5033157;28;20460;-46
2021/06/30 06:47:58;;;;;;;0.60;0.40;;;;;;;;;;5073399;28;20536;-42
2021/06/30 06:50:41;;;;;;;0.63;0.28;;;;;;;;;;5068154;28;20414;-46
2021/06/30 06:53:20;;;;;;;1.75;0.32;;;;;;;;;;5054344;28;20429;-49
2021/06/30 06:56:01;;;;;;;0.77;0.40;;;;;;;;;;5088157;27;20461;-43
2021/06/30 06:58:44;;;;;;;0.38;0.38;;;;;;;;;;5074439;28;20429;-47
2021/06/30 07:01:27;;;;;;;0.45;0.22;;;;;;;;;;5059884;28;20824;-45
2021/06/30 07:04:10;;;;;;;2.00;0.45;;;;;;;;;;5068945;28;20824;-45
2021/06/30 07:06:57;;;;;;;1.00;0.40;;;;;;;;;;5068604;28;20469;-41
2021/06/30 07:09:43;;;;;;;0.68;0.20;;;;;;;;;;5083457;27;20476;-46
2021/06/30 07:12:26;;;;;;;3.20;0.43;;;;;;;;;;5106064;27;20424;-45
2021/06/30 07:15:10;;;;;;;0.95;0.30;;;;;;;;;;5065489;28;20435;-43
2021/06/30 07:17:53;;;;;;;1.27;0.30;;;;;;;;;;5062735;28;20808;-47
2021/06/30 07:20:36;;;;;;;0.63;0.10;;;;;;;;;;5062164;28;20423;-50
2021/06/30 07:23:19;;;;;;;0.32;0.20;;;;;;;;;;5054052;28;20425;-44
2021/06/30 07:26:02;;;;;;;1.23;0.30;;;;;;;;;;5067937;28;20450;-47
2021/06/30 07:28:45;;;;;;;2.47;0.43;;;;;;;;;;5085442;27;20852;-46
2021/06/30 07:31:28;;;;;;;0.17;0.17;;;;;;;;;;5040217;28;20614;-42
2021/06/30 07:34:11;;;;;;;0.50;0.17;;;;;;;;;;5039053;28;20496;-40
2021/06/30 07:36:54;;;;;;;1.40;0.47;;;;;;;;;;5110902;27;20416;-41
2021/06/30 07:39:37;;;;;;;0.60;0.20;;;;;;;;;;5130310;27;20503;-48
2021/06/30 07:42:21;;;;;;;0.50;0.20;;;;;;;;;;5103841;27;20431;-48
2021/06/30 07:45:04;;;;;;;0.13;0.13;;;;;;;;;;5043474;28;20439;-44
2021/06/30 07:47:41;;;;;;;0.20;0.20;;;;;;;;;;5074477;27;20420;-43
2021/06/30 07:50:20;;;;;;;0.28;0.28;;;;;;;;;;5100877;27;20921;-46
2021/06/30 07:52:58;;;;;;;1.15;0.30;;;;;;;;;;5062152;28;20430;-49
2021/06/30 07:55:36;;;;;;;0.28;0.28;;;;;;;;;;5091570;27;20946;-49
2021/06/30 07:58:16;;;;;;;0.52;0.30;;;;;;;;;;5060958;28;20447;-48
2021/06/30 08:00:56;;;;;;;1.33;0.28;;;;;;;;;;5059491;28;20434;-47
2021/06/30 08:03:42;;;;;;;0.43;0.13;;;;;;;;;;5103416;27;20431;-41
2021/06/30 08:06:21;;;;;;;0.20;0.20;;;;;;;;;;5063289;28;20459;-41
2021/06/30 08:09:00;;;;;;;0.25;0.20;;;;;;;;;;5062038;28;20427;-48
2021/06/30 08:11:38;;;;;;;0.10;0.10;;;;;;;;;;5058346;28;20424;-42
2021/06/30 08:14:17;;;;;;;0.28;0.28;;;;;;;;;;5051762;28;20498;-43
2021/06/30 08:16:54;;;;;;;0.70;0.30;;;;;;;;;;5059692;28;20429;-44
2021/06/30 08:19:32;;;;;;;0.20;0.20;;;;;;;;;;5041220;28;21151;-45
2021/06/30 08:22:11;;;;;;;0.45;0.20;;;;;;;;;;5067580;28;20810;-41
2021/06/30 08:24:49;;;;;;;0.38;0.28;;;;;;;;;;5067172;28;20420;-39
2021/06/30 08:27:27;;;;;;;0.22;0.20;;;;;;;;;;5067907;28;20903;-43
2021/06/30 08:30:06;;;;;;;8.07;0.75;;;;;;;;;;5049973;28;20424;-44
2021/06/30 08:32:47;;;;;;;0.57;0.40;;;;;;;;;;5059666;28;20419;-41
2021/06/30 08:35:25;;;;;;;0.88;0.30;;;;;;;;;;5069141;28;20400;-45
2021/06/30 08:38:03;;;;;;;3.00;0.30;;;;;;;;;;5065777;28;20453;-46
2021/06/30 08:40:41;;;;;;;0.40;0.40;;;;;;;;;;5101611;27;20785;-42
2021/06/30 08:43:19;;;;;;;2.88;0.40;;;;;;;;;;5064952;28;20419;-45
2021/06/30 08:46:10;;;;;;;0.30;0.20;;;;;;;;;;5108465;27;20198;-45
2021/06/30 08:48:56;;;;;;;0.45;0.20;;;;;;;;;;5064401;28;20795;-45
2021/06/30 08:51:34;;;;;;;0.30;0.30;;;;;;;;;;5066246;28;20427;-44
2021/06/30 08:54:12;;;;;;;0.75;0.30;;;;;;;;;;5063302;28;20423;-46
2021/06/30 08:56:51;;;;;;;1.40;0.30;;;;;;;;;;5068734;28;20411;-45
2021/06/30 08:59:29;;;;;;;0.55;0.22;;;;;;;;;;5068086;28;20916;-44
2021/06/30 09:02:06;;;;;;;1.13;0.30;;;;;;;;;;5118763;27;20429;-43
2021/06/30 09:04:45;;;;;;;1.35;0.40;;;;;;;;;;5066476;28;20423;-44
2021/06/30 09:07:23;;;;;;;0.88;0.40;;;;;;;;;;5128758;27;20430;-44
2021/06/30 09:10:01;;;;;;;1.73;0.40;;;;;;;;;;5058981;28;20432;-43
2021/06/30 09:12:40;;;;;;;0.70;0.30;;;;;;;;;;5064762;28;20594;-47
2021/06/30 09:15:18;;;;;;;0.60;0.32;;;;;;;;;;5054954;28;20841;-44
2021/06/30 09:18:24;;;;;;;0.80;0.30;;;;;;;;;;5054503;28;20419;-46
2021/06/30 09:21:38;;;;;;;0.30;0.30;;;;;;;;;;5091777;27;20422;-48
2021/06/30 09:24:19;;;;;;;0.50;0.45;;;;;;;;;;5087940;27;20425;-47
2021/06/30 09:27:00;;;;;;;0.32;0.30;;;;;;;;;;5068796;28;20407;-45
2021/06/30 09:29:38;;;;;;;0.30;0.30;;;;;;;;;;5060867;28;20429;-46
2021/06/30 09:32:17;;;;;;;0.50;0.25;;;;;;;;;;5062412;28;20447;-49
2021/06/30 09:35:14;;;;;;;1.98;0.30;;;;;;;;;;5069412;28;20403;-45
2021/06/30 09:37:52;;;;;;;0.43;0.40;;;;;;;;;;5055082;28;20592;-42
2021/06/30 09:40:43;;;;;;;1.50;0.93;;;;;;;;;;5050984;28;20425;-45
2021/06/30 09:43:22;;;;;;;0.35;0.30;;;;;;;;;;5069652;28;20415;-45
2021/06/30 09:46:02;;;;;;;0.50;0.32;;;;;;;;;;5057924;28;20834;-43
2021/06/30 09:48:40;;;;;;;1.25;0.32;;;;;;;;;;5046442;28;21020;-44
2021/06/30 09:51:18;;;;;;;0.55;0.30;;;;;;;;;;5064791;28;20424;-44
2021/06/30 09:54:07;;;;;;;0.32;0.30;;;;;;;;;;5048126;28;20429;-47
2021/06/30 09:56:55;;;;;;;1.00;0.50;;;;;;;;;;5127862;27;20186;-47
2021/06/30 09:59:38;;;;;;;1.95;0.47;;;;;;;;;;5054015;28;20432;-46
2021/06/30 10:02:17;;;;;;;0.35;0.32;;;;;;;;;;5089215;27;20418;-45
2021/06/30 10:04:59;;;;;;;0.28;0.28;;;;;;;;;;5068134;28;20415;-41
2021/06/30 10:07:38;;;;;;;2.72;0.40;;;;;;;;;;5067793;28;20790;-41
2021/06/30 10:10:20;;;;;;;1.63;0.40;;;;;;;;;;5060041;28;20428;-45
2021/06/30 10:12:59;;;;;;;1.42;0.52;;;;;;;;;;5048011;28;20420;-44
2021/06/30 10:15:39;;;;;;;0.70;0.40;;;;;;;;;;5068899;28;20404;-48
2021/06/30 10:18:17;;;;;;;0.60;0.40;;;;;;;;;;5062126;28;20435;-51
2021/06/30 10:20:56;;;;;;;0.40;0.40;;;;;;;;;;5067447;28;21078;-47
2021/06/30 10:23:33;;;;;;;2.45;0.40;;;;;;;;;;5047325;28;20428;-48
2021/06/30 10:26:12;;;;;;;0.75;0.30;;;;;;;;;;5061609;28;20493;-46
2021/06/30 10:28:52;;;;;;;0.95;0.43;;;;;;;;;;5065764;28;20419;-47
2021/06/30 10:31:35;;;;;;;1.50;0.50;;;;;;;;;;5067411;28;21082;-45
2021/06/30 10:34:14;;;;;;;1.20;0.55;;;;;;;;;;5053632;28;20417;-47
2021/06/30 10:36:53;;;;;;;1.33;0.40;;;;;;;;;;5069026;28;20426;-44
2021/06/30 10:39:38;;;;;;;1.55;0.50;;;;;;;;;;5059996;28;20424;-44
2021/06/30 10:42:29;;;;;;;0.77;0.57;;;;;;;;;;5068960;28;20411;-44
2021/06/30 10:45:12;;;;;;;0.50;0.30;;;;;;;;;;5046280;28;20432;-49
2021/06/30 10:47:52;;;;;;;0.30;0.30;;;;;;;;;;5063300;28;20873;-42
2021/06/30 10:50:34;;;;;;;0.38;0.30;;;;;;;;;;5067322;28;20859;-44
2021/06/30 10:53:12;;;;;;;0.35;0.35;;;;;;;;;;5053951;28;20432;-47
2021/06/30 10:55:51;;;;;;;0.88;0.30;;;;;;;;;;5060133;28;20925;-50
2021/06/30 10:58:31;;;;;;;0.75;0.40;;;;;;;;;;5063470;28;20427;-44
2021/06/30 11:01:12;;;;;;;0.75;0.38;;;;;;;;;;5030933;28;20891;-50
2021/06/30 11:03:50;;;;;;;0.22;0.22;;;;;;;;;;5047663;28;20798;-49
2021/06/30 11:06:29;;;;;;;0.63;0.43;;;;;;;;;;5054178;28;20434;-41
2021/06/30 11:09:08;;;;;;;0.57;0.30;;;;;;;;;;5055717;28;20437;-44
2021/06/30 11:11:59;;;;;;;0.47;0.35;;;;;;;;;;5097740;27;20425;-50
2021/06/30 11:14:38;;;;;;;0.52;0.20;;;;;;;;;;5054202;28;20491;-44
2021/06/30 11:17:45;;;;;;;0.22;0.22;;;;;;;;;;5117714;27;20442;-49
2021/06/30 11:20:41;;;;;;;1.00;0.30;;;;;;;;;;5045680;28;20432;-46
2021/06/30 11:23:19;;;;;;;0.30;0.30;;;;;;;;;;5050399;28;20425;-41
2021/06/30 11:26:18;;;;;;;1.65;0.50;;;;;;;;;;5064803;28;20427;-44
2021/06/30 11:28:55;;;;;;;1.15;0.35;;;;;;;;;;5117605;27;20811;-43
2021/06/30 11:31:34;;;;;;;0.40;0.40;;;;;;;;;;5094869;27;20410;-55
2021/06/30 11:34:12;;;;;;;1.90;0.50;;;;;;;;;;5147996;27;20422;-55
2021/06/30 11:36:50;;;;;;;0.68;0.40;;;;;;;;;;5130038;27;20419;-53
2021/06/30 11:39:29;;;;;;;0.40;0.32;;;;;;;;;;5086871;27;20419;-52
2021/06/30 11:42:08;;;;;;;1.15;0.50;;;;;;;;;;5067433;28;20440;-51
2021/06/30 11:44:46;;;;;;;0.95;0.60;;;;;;;;;;5105547;27;20827;-53
2021/06/30 11:47:36;;;;;;;1.30;0.40;;;;;;;;;;5162305;27;20440;-51
2021/06/30 11:50:18;;;;;;;0.90;0.40;;;;;;;;;;5096671;27;21072;-48
2021/06/30 11:52:57;;;;;;;3.63;0.70;;;;;;;;;;5047344;28;20879;-50
2021/06/30 11:55:38;;;;;;;0.50;0.50;;;;;;;;;;5041439;28;20432;-52
2021/06/30 11:58:15;;;;;;;3.40;0.50;;;;;;;;;;5095210;27;20443;-49
2021/06/30 12:00:55;;;;;;;1.15;0.45;;;;;;;;;;5130061;27;20509;-52
2021/06/30 12:03:34;;;;;;;1.35;0.73;;;;;;;;;;5104415;27;20426;-46
2021/06/30 12:06:22;;;;;;;0.80;0.38;;;;;;;;;;5046724;28;20873;-45
2021/06/30 12:09:11;;;;;;;1.63;0.43;;;;;;;;;;5090197;22;20142;-46
2021/06/30 12:11:54;;;;;;;1.30;0.60;;;;;;;;;;5062977;28;20443;-44
2021/06/30 12:14:43;;;;;;;0.50;0.50;;;;;;;;;;5062266;28;20496;-44
2021/06/30 12:17:21;;;;;;;0.65;0.52;;;;;;;;;;5058935;28;20897;-46
2021/06/30 12:20:04;;;;;;;0.40;0.40;;;;;;;;;;5059298;28;20427;-48
2021/06/30 12:22:43;;;;;;;2.05;0.55;;;;;;;;;;5036056;28;20492;-44
2021/06/30 12:25:23;;;;;;;1.17;0.60;;;;;;;;;;5068124;28;20418;-47
2021/06/30 12:28:03;;;;;;;2.58;0.50;;;;;;;;;;5060540;28;20446;-48
2021/06/30 12:30:46;;;;;;;1.55;0.70;;;;;;;;;;5066466;28;20818;-44
2021/06/30 12:33:23;;;;;;;0.50;0.50;;;;;;;;;;5033301;28;20425;-44
2021/06/30 12:36:01;;;;;;;2.40;0.82;;;;;;;;;;5067847;28;20431;-50
2021/06/30 12:38:39;;;;;;;2.88;0.90;;;;;;;;;;5061209;28;21213;-43
2021/06/30 12:41:18;;;;;;;2.30;1.00;;;;;;;;;;5059649;28;20778;-46
2021/06/30 12:44:00;;;;;;;2.00;1.10;;;;;;;;;;5064081;28;20441;-44
2021/06/30 12:46:37;;;;;;;1.42;1.00;;;;;;;;;;5129020;27;20416;-43
2021/06/30 12:49:16;;;;;;;4.15;1.55;;;;;;;;;;5058761;28;20433;-46
2021/06/30 12:51:54;;;;;;;1.55;0.90;;;;;;;;;;5061338;28;20430;-45
2021/06/30 12:54:32;;;;;;;2.88;1.10;;;;;;;;;;5058543;28;20428;-50
2021/06/30 12:57:10;;;;;;;2.45;1.00;;;;;;;;;;5064721;28;20420;-44
2021/06/30 13:00:05;;;;;;;1.15;0.82;;;;;;;;;;5064190;28;20424;-44
2021/06/30 13:02:46;;;;;;;2.10;1.10;;;;;;;;;;5066384;28;20614;-45
2021/06/30 13:05:25;;;;;;;1.33;0.88;;;;;;;;;;5126986;27;20427;-48
2021/06/30 13:08:04;;;;;;;1.52;1.02;;;;;;;;;;5059564;28;20424;-46
2021/06/30 13:10:42;;;;;;;2.40;1.20;;;;;;;;;;5079692;28;20933;-45
2021/06/30 13:13:20;;;;;;;3.70;1.20;;;;;;;;;;5062516;28;20435;-46
2021/06/30 13:16:07;;;;;;;1.58;0.95;;;;;;;;;;5060730;28;20427;-44
2021/06/30 13:18:50;;;;;;;1.45;0.98;;;;;;;;;;5114463;27;20140;-47
2021/06/30 13:21:32;;;;;;;2.08;1.10;;;;;;;;;;5102416;27;20434;-45
2021/06/30 13:24:18;;;;;;;1.98;1.10;;;;;;;;;;5068886;28;20395;-44
2021/06/30 13:27:31;;;;;;;2.60;1.20;;;;;;;;;;5057583;28;20435;-45
2021/06/30 13:36:06;;;;;;;2.00;1.08;;;;;;;;;;5065448;28;20481;-45
2021/06/30 13:38:44;;;;;;;3.20;1.65;;;;;;;;;;5053435;28;20424;-45
2021/06/30 13:41:21;;;;;;;1.95;0.85;;;;;;;;;;5032334;28;20433;-45
2021/06/30 13:43:59;;;;;;;2.30;1.10;;;;;;;;;;5067948;28;20427;-43
2021/06/30 13:46:38;;;;;;;1.77;1.10;;;;;;;;;;5065169;28;20426;-43
2021/06/30 13:49:16;;;;;;;3.42;1.30;;;;;;;;;;5061151;28;20829;-47
2021/06/30 13:51:54;;;;;;;1.30;0.98;;;;;;;;;;5063687;28;20421;-43
2021/06/30 13:54:33;;;;;;;1.90;1.23;;;;;;;;;;5068767;28;20842;-44
2021/06/30 13:57:12;;;;;;;2.35;1.00;;;;;;;;;;5067209;28;20754;-43
2021/06/30 13:59:50;;;;;;;2.72;1.13;;;;;;;;;;5094811;27;20425;-45
2021/06/30 14:02:31;;;;;;;1.85;1.10;;;;;;;;;;5032959;28;20433;-43
2021/06/30 14:05:10;;;;;;;2.42;1.17;;;;;;;;;;5031115;28;20434;-47
2021/06/30 14:07:48;;;;;;;1.25;0.85;;;;;;;;;;5096494;27;20434;-44
2021/06/30 14:10:27;;;;;;;3.50;1.73;;;;;;;;;;5059570;28;20419;-44
2021/06/30 14:13:04;;;;;;;1.45;0.90;;;;;;;;;;5066345;28;20483;-44
2021/06/30 14:15:43;;;;;;;2.05;1.50;;;;;;;;;;5056460;28;20432;-44
2021/06/30 14:18:21;;;;;;;1.63;0.90;;;;;;;;;;5061264;28;20435;-43
2021/06/30 14:20:59;;;;;;;2.95;0.93;;;;;;;;;;5063230;28;20427;-43
2021/06/30 14:23:37;;;;;;;0.93;0.70;;;;;;;;;;5066063;28;20431;-43
2021/06/30 14:26:15;;;;;;;1.23;0.80;;;;;;;;;;5061639;28;20429;-44
2021/06/30 14:28:54;;;;;;;0.77;0.60;;;;;;;;;;5066584;28;20427;-43
2021/06/30 14:31:33;;;;;;;2.33;0.80;;;;;;;;;;5060502;28;20427;-43
2021/06/30 14:34:11;;;;;;;1.27;0.82;;;;;;;;;;5068546;28;20407;-45
2021/06/30 14:36:50;;;;;;;2.17;0.85;;;;;;;;;;5054222;28;20429;-45
2021/06/30 14:39:28;;;;;;;2.58;0.82;;;;;;;;;;5046629;28;20495;-43
2021/06/30 14:42:06;;;;;;;1.25;0.80;;;;;;;;;;5057549;28;20427;-44
2021/06/30 14:44:44;;;;;;;0.88;0.70;;;;;;;;;;5067970;28;20428;-42
2021/06/30 14:47:22;;;;;;;1.20;0.70;;;;;;;;;;5059028;28;20428;-44
2021/06/30 14:50:01;;;;;;;1.67;1.10;;;;;;;;;;5067958;28;20423;-44
2021/06/30 14:52:39;;;;;;;1.02;0.80;;;;;;;;;;5056858;28;20467;-45
2021/06/30 14:55:17;;;;;;;2.58;0.70;;;;;;;;;;5067081;28;20434;-43
2021/06/30 14:57:55;;;;;;;0.68;0.68;;;;;;;;;;5077389;28;20422;-45
2021/06/30 15:00:34;;;;;;;1.70;1.00;;;;;;;;;;5083312;28;20530;-44
2021/06/30 15:03:12;;;;;;;3.55;0.90;;;;;;;;;;5067696;28;20407;-43
2021/06/30 15:05:50;;;;;;;2.75;0.98;;;;;;;;;;5075065;27;20430;-45
2021/06/30 15:08:28;;;;;;;1.63;0.90;;;;;;;;;;5103488;27;20428;-48
2021/06/30 15:11:06;;;;;;;1.65;0.93;;;;;;;;;;5057634;28;20428;-47
2021/06/30 15:13:45;;;;;;;2.75;0.70;;;;;;;;;;5109499;27;20403;-45
2021/06/30 15:16:23;;;;;;;0.85;0.60;;;;;;;;;;5061133;28;20873;-48
2021/06/30 15:19:01;;;;;;;2.53;0.70;;;;;;;;;;5058259;28;20443;-43
2021/06/30 15:21:44;;;;;;;1.25;0.52;;;;;;;;;;5063464;28;20817;-44
2021/06/30 15:24:22;;;;;;;1.20;0.60;;;;;;;;;;5067938;28;20438;-45
2021/06/30 15:27:00;;;;;;;0.80;0.70;;;;;;;;;;5106346;27;20489;-42
2021/06/30 15:29:38;;;;;;;3.40;0.80;;;;;;;;;;5105288;27;20439;-43
2021/06/30 15:32:17;;;;;;;1.80;0.80;;;;;;;;;;5067887;28;20426;-47
2021/06/30 15:34:56;;;;;;;1.10;0.52;;;;;;;;;;5048710;28;20428;-44
2021/06/30 15:37:35;;;;;;;1.63;0.60;;;;;;;;;;5059976;28;20435;-43
2021/06/30 15:40:13;;;;;;;1.13;0.60;;;;;;;;;;5105140;27;20440;-49
2021/06/30 15:42:52;;;;;;;0.75;0.75;;;;;;;;;;5055093;28;20435;-50
2021/06/30 15:45:30;;;;;;;1.25;0.70;;;;;;;;;;5113868;27;20578;-46
2021/06/30 15:48:08;;;;;;;1.55;0.80;;;;;;;;;;5111361;27;20136;-48
2021/06/30 15:50:47;;;;;;;2.00;0.60;;;;;;;;;;5129699;27;20513;-49
2021/06/30 15:53:26;;;;;;;1.25;0.80;;;;;;;;;;5066720;28;20416;-49
2021/06/30 15:56:05;;;;;;;0.98;0.88;;;;;;;;;;5129655;27;20349;-49
2021/06/30 15:58:51;;;;;;;1.92;0.70;;;;;;;;;;5105609;27;20155;-50
2021/06/30 16:01:30;;;;;;;1.92;0.90;;;;;;;;;;5045941;28;20795;-51
2021/06/30 16:04:08;;;;;;;0.82;0.70;;;;;;;;;;5105487;27;20444;-52
2021/06/30 16:06:47;;;;;;;1.35;0.90;;;;;;;;;;5044875;28;20429;-52
2021/06/30 16:09:24;;;;;;;1.25;0.90;;;;;;;;;;5059543;28;20436;-49
2021/06/30 16:12:07;;;;;;;0.60;0.60;;;;;;;;;;5097617;27;20446;-47
2021/06/30 16:14:45;;;;;;;1.10;0.77;;;;;;;;;;5050489;28;20429;-51